Time;durP1;ratioP1;P1;durP2;ratioP2;P2;SDS_P1;SDS_P2;PMS_P1;PMS_P2;Temp;Humidity;BMP_temperature;BMP_pressure;BME280_temperature;BME280_humidity;BME280_pressure;Samples;Min_cycle;Max_cycle;Signal;HPM_P1;HPM_P2
2022/10/19 00:01:10;;;;;;;14.87;13.43;;;15.50;99.90;;;;;;5034270;28;20168;-58
2022/10/19 00:03:36;;;;;;;15.73;13.93;;;15.50;99.90;;;;;;5034008;28;20646;-57
2022/10/19 00:06:12;;;;;;;13.93;12.63;;;15.60;99.90;;;;;;5034176;28;20196;-60
2022/10/19 00:08:38;;;;;;;15.67;14.10;;;15.60;99.90;;;;;;5033298;28;20191;-59
2022/10/19 00:11:03;;;;;;;14.23;12.93;;;15.60;99.90;;;;;;5034021;28;20263;-58
2022/10/19 00:13:29;;;;;;;13.33;12.13;;;15.60;99.90;;;;;;5033821;28;20176;-58
2022/10/19 00:15:54;;;;;;;13.80;12.50;;;15.70;99.90;;;;;;5033967;28;20383;-59
2022/10/19 00:18:20;;;;;;;13.37;12.17;;;15.80;99.90;;;;;;5033997;28;20175;-57
2022/10/19 00:20:46;;;;;;;15.03;13.43;;;15.90;99.90;;;;;;5033918;28;20178;-56
2022/10/19 00:23:11;;;;;;;13.00;11.70;;;15.80;99.90;;;;;;5033803;28;20533;-59
2022/10/19 00:25:37;;;;;;;13.70;12.47;;;15.90;99.90;;;;;;5033745;28;20196;-57
2022/10/19 00:28:03;;;;;;;17.50;14.20;;;15.90;99.90;;;;;;5033839;28;20661;-59
2022/10/19 00:30:29;;;;;;;28.17;15.57;;;15.90;99.90;;;;;;5033668;28;20230;-59
2022/10/19 00:32:54;;;;;;;13.73;12.57;;;16.00;99.90;;;;;;5033738;28;20173;-58
2022/10/19 00:35:20;;;;;;;14.27;12.87;;;16.00;99.90;;;;;;5033467;28;20199;-59
2022/10/19 00:37:46;;;;;;;12.97;11.77;;;15.90;99.90;;;;;;5033636;28;20246;-59
2022/10/19 00:40:12;;;;;;;13.60;12.30;;;15.90;99.90;;;;;;5033519;28;20210;-58
2022/10/19 00:42:38;;;;;;;12.70;11.53;;;15.80;99.90;;;;;;5033466;28;20176;-57
2022/10/19 00:45:12;;;;;;;11.53;10.53;;;15.80;99.90;;;;;;5031872;28;20168;-58
2022/10/19 00:47:37;;;;;;;11.70;10.70;;;15.80;99.90;;;;;;5033443;28;20168;-58
2022/10/19 00:50:04;;;;;;;12.63;11.43;;;15.80;99.90;;;;;;5033456;28;20574;-58
2022/10/19 00:52:29;;;;;;;12.00;10.90;;;15.80;99.90;;;;;;5033324;28;20169;-58
2022/10/19 00:54:56;;;;;;;12.60;11.40;;;15.90;99.90;;;;;;5033037;28;20184;-57
2022/10/19 00:57:25;;;;;;;11.70;10.70;;;15.90;99.90;;;;;;5033139;28;20214;-58
2022/10/19 00:59:51;;;;;;;12.70;11.70;;;15.80;99.90;;;;;;5033184;28;20206;-59
2022/10/19 01:02:17;;;;;;;22.33;12.97;;;15.70;99.90;;;;;;5033184;28;20168;-58
2022/10/19 01:04:46;;;;;;;74.87;16.83;;;15.90;99.90;;;;;;5032940;28;20206;-59
2022/10/19 01:07:13;;;;;;;12.60;11.50;;;15.90;99.90;;;;;;5033080;28;20180;-59
2022/10/19 01:09:38;;;;;;;12.23;11.20;;;15.80;99.90;;;;;;5032879;28;20168;-61
2022/10/19 01:12:10;;;;;;;12.30;11.17;;;15.80;99.90;;;;;;5033061;28;20247;-59
2022/10/19 01:14:47;;;;;;;12.30;11.13;;;15.70;99.90;;;;;;5032504;28;20266;-58
2022/10/19 01:17:22;;;;;;;12.40;11.20;;;15.70;99.90;;;;;;5032903;28;20753;-59
2022/10/19 01:20:27;;;;;;;13.70;12.33;;;15.70;99.90;;;;;;5032635;28;20188;-58
2022/10/19 01:22:58;;;;;;;13.73;12.23;;;15.60;99.90;;;;;;5010703;28;20602;-59
2022/10/19 01:25:54;;;;;;;14.23;13.03;;;15.60;99.90;;;;;;5010191;28;20633;-59
2022/10/19 01:28:53;;;;;;;16.17;13.20;;;15.50;99.90;;;;;;5010506;28;20656;-59
2022/10/19 01:31:47;;;;;;;15.27;13.97;;;15.40;99.90;;;;;;5010579;28;20173;-58
2022/10/19 01:34:32;;;;;;;14.37;13.07;;;15.40;99.90;;;;;;5010230;28;20275;-58
2022/10/19 01:37:18;;;;;;;13.73;12.43;;;15.40;99.90;;;;;;5010541;28;20908;-59
2022/10/19 01:40:03;;;;;;;13.07;11.87;;;15.30;99.90;;;;;;5010237;28;20283;-58
2022/10/19 01:42:44;;;;;;;13.83;12.67;;;15.40;99.90;;;;;;5010501;28;20173;-57
2022/10/19 01:45:20;;;;;;;13.37;12.07;;;15.40;99.90;;;;;;5010246;28;20165;-59
2022/10/19 01:48:05;;;;;;;12.40;11.30;;;15.50;99.90;;;;;;5010317;28;20220;-59
2022/10/19 01:50:32;;;;;;;12.37;11.20;;;15.50;99.90;;;;;;5010131;28;20288;-55
2022/10/19 01:52:59;;;;;;;12.27;11.00;;;15.60;99.90;;;;;;5010207;28;20184;-58
2022/10/19 01:55:26;;;;;;;11.73;10.73;;;15.70;99.90;;;;;;5009615;28;20232;-59
2022/10/19 01:58:00;;;;;;;11.50;10.57;;;15.60;99.90;;;;;;5010026;28;20246;-57
2022/10/19 02:00:28;;;;;;;10.70;9.90;;;15.60;99.90;;;;;;5025046;28;20816;-59
2022/10/19 02:02:55;;;;;;;12.30;11.23;;;15.70;99.90;;;;;;5031961;28;20175;-59
2022/10/19 02:05:25;;;;;;;11.13;10.23;;;15.70;99.90;;;;;;5031809;28;20188;-57
2022/10/19 02:07:57;;;;;;;11.13;10.23;;;15.80;99.90;;;;;;5032019;28;20172;-59
2022/10/19 02:10:24;;;;;;;12.23;11.03;;;15.80;99.90;;;;;;5031997;28;20176;-59
2022/10/19 02:12:52;;;;;;;11.00;10.10;;;15.70;99.90;;;;;;5031787;28;20168;-58
2022/10/19 02:15:21;;;;;;;11.00;10.10;;;15.60;99.90;;;;;;5031669;28;20540;-58
2022/10/19 02:17:50;;;;;;;11.63;10.53;;;15.60;99.90;;;;;;5031765;28;20255;-58
2022/10/19 02:20:17;;;;;;;10.93;9.93;;;15.60;99.90;;;;;;5031754;28;20203;-54
2022/10/19 02:22:43;;;;;;;11.97;10.87;;;15.60;99.90;;;;;;5031545;28;20176;-57
2022/10/19 02:25:09;;;;;;;11.73;10.63;;;15.60;99.90;;;;;;5031462;28;20231;-57
2022/10/19 02:27:38;;;;;;;11.43;10.53;;;15.60;99.90;;;;;;5031872;28;20172;-58
2022/10/19 02:30:04;;;;;;;11.90;10.80;;;15.50;99.90;;;;;;5032134;28;20176;-60
2022/10/19 02:32:30;;;;;;;10.23;9.33;;;15.50;99.90;;;;;;5031808;28;20225;-59
2022/10/19 02:34:56;;;;;;;10.07;9.17;;;15.40;99.90;;;;;;5031769;28;20657;-57
2022/10/19 02:37:23;;;;;;;11.03;10.03;;;15.50;99.90;;;;;;5031525;28;20267;-58
2022/10/19 02:39:49;;;;;;;11.47;10.47;;;;;;;;;;5031509;28;20696;-56
2022/10/19 02:42:23;;;;;;;10.87;9.30;;;16.00;99.90;;;;;;5031544;28;20168;-58
2022/10/19 02:45:06;;;;;;;10.70;9.80;;;15.60;99.90;;;;;;5031178;28;20282;-58
2022/10/19 02:47:45;;;;;;;13.33;12.23;;;15.60;99.90;;;;;;5031445;28;20176;-57
2022/10/19 02:50:11;;;;;;;12.30;11.20;;;15.70;99.90;;;;;;5031355;28;20633;-58
2022/10/19 02:52:37;;;;;;;11.00;10.10;;;15.70;99.90;;;;;;5031496;28;20168;-57
2022/10/19 02:55:04;;;;;;;10.67;9.73;;;15.70;99.90;;;;;;5030867;28;20191;-60
2022/10/19 02:57:31;;;;;;;10.83;9.73;;;15.70;99.90;;;;;;5031353;28;20176;-57
2022/10/19 02:59:57;;;;;;;11.80;10.80;;;15.60;99.90;;;;;;5031084;28;20199;-58
2022/10/19 03:02:23;;;;;;;10.83;9.83;;;15.60;99.90;;;;;;5031398;28;20634;-58
2022/10/19 03:04:49;;;;;;;10.20;9.40;;;15.60;99.90;;;;;;5031103;28;20183;-56
2022/10/19 03:07:16;;;;;;;10.13;9.23;;;15.60;99.90;;;;;;5031334;28;20192;-58
2022/10/19 03:09:43;;;;;;;10.07;9.27;;;15.50;99.90;;;;;;5031260;28;20243;-56
2022/10/19 03:12:09;;;;;;;9.40;8.63;;;15.60;99.90;;;;;;5031134;28;20233;-58
2022/10/19 03:14:35;;;;;;;8.93;8.23;;;15.60;99.90;;;;;;5030892;28;20203;-56
2022/10/19 03:17:00;;;;;;;8.80;8.10;;;15.50;99.90;;;;;;5031047;28;20191;-58
2022/10/19 03:19:26;;;;;;;8.37;7.77;;;15.50;99.90;;;;;;5031088;28;20203;-59
2022/10/19 03:21:51;;;;;;;8.57;7.87;;;15.50;99.90;;;;;;5029775;28;20645;-59
2022/10/19 03:24:17;;;;;;;9.37;8.57;;;15.40;99.90;;;;;;5030901;28;20247;-59
2022/10/19 03:26:43;;;;;;;9.07;8.27;;;15.40;99.90;;;;;;5030884;28;20188;-56
2022/10/19 03:29:08;;;;;;;9.33;8.60;;;15.40;99.90;;;;;;5031017;28;20180;-57
2022/10/19 03:31:34;;;;;;;10.07;9.27;;;15.40;99.90;;;;;;5030905;28;20245;-57
2022/10/19 03:34:00;;;;;;;22.30;11.87;;;15.40;99.90;;;;;;5030851;28;20168;-55
2022/10/19 03:36:28;;;;;;;10.83;9.77;;;15.40;99.90;;;;;;5031009;28;20585;-58
2022/10/19 03:38:56;;;;;;;9.47;8.57;;;15.30;99.90;;;;;;5030823;28;20194;-59
2022/10/19 03:41:23;;;;;;;10.23;9.33;;;15.30;99.90;;;;;;5031100;28;20215;-57
2022/10/19 03:43:49;;;;;;;10.03;9.23;;;15.30;99.90;;;;;;5031337;28;20183;-57
2022/10/19 03:46:16;;;;;;;9.47;8.77;;;15.10;99.90;;;;;;5034663;28;20199;-58
2022/10/19 03:48:42;;;;;;;9.10;8.37;;;15.10;99.90;;;;;;5034713;28;20172;-58
2022/10/19 03:51:13;;;;;;;8.60;7.80;;;15.10;99.90;;;;;;5034562;28;20176;-59
2022/10/19 03:53:39;;;;;;;8.43;7.73;;;15.10;99.90;;;;;;5034209;28;20184;-58
2022/10/19 03:56:08;;;;;;;8.50;7.80;;;15.10;99.90;;;;;;5034292;28;20227;-59
2022/10/19 03:58:36;;;;;;;9.07;8.30;;;15.10;99.90;;;;;;5034263;28;20206;-57
2022/10/19 04:01:07;;;;;;;8.13;7.43;;;14.90;99.90;;;;;;5034404;28;20172;-58
2022/10/19 04:03:32;;;;;;;7.77;7.17;;;15.00;99.90;;;;;;5034222;28;20718;-57
2022/10/19 04:06:03;;;;;;;7.73;7.03;;;15.10;99.90;;;;;;5034340;28;20223;-58
2022/10/19 04:08:29;;;;;;;8.60;7.90;;;15.00;99.90;;;;;;5034372;28;20192;-56
2022/10/19 04:10:59;;;;;;;7.90;7.30;;;15.00;99.90;;;;;;5034066;28;20172;-58
2022/10/19 04:13:25;;;;;;;7.80;7.20;;;14.90;99.90;;;;;;5033992;28;20191;-58
2022/10/19 04:15:51;;;;;;;7.87;7.10;;;15.00;99.90;;;;;;5033973;28;20188;-59
2022/10/19 04:18:16;;;;;;;8.13;7.47;;;15.10;99.90;;;;;;5032936;28;20232;-59
2022/10/19 04:20:42;;;;;;;7.80;7.13;;;15.10;99.90;;;;;;5033958;28;20245;-58
2022/10/19 04:23:08;;;;;;;8.00;7.20;;;15.10;99.90;;;;;;5033825;28;20186;-59
2022/10/19 04:25:33;;;;;;;8.37;7.67;;;15.10;99.90;;;;;;5033680;28;20192;-57
2022/10/19 04:27:59;;;;;;;8.93;8.03;;;15.10;99.90;;;;;;5033947;28;20176;-59
2022/10/19 04:30:25;;;;;;;8.77;8.07;;;15.10;99.90;;;;;;5032454;28;20187;-58
2022/10/19 04:32:50;;;;;;;8.97;8.27;;;15.10;99.90;;;;;;5033824;28;20638;-57
2022/10/19 04:35:16;;;;;;;9.57;8.60;;;15.10;99.90;;;;;;5032026;28;20187;-59
2022/10/19 04:37:41;;;;;;;9.27;8.47;;;15.10;99.90;;;;;;5033792;28;20184;-58
2022/10/19 04:40:08;;;;;;;9.63;8.83;;;15.10;99.90;;;;;;5033416;28;20245;-57
2022/10/19 04:42:33;;;;;;;10.40;9.57;;;15.10;99.90;;;;;;5033566;28;20183;-56
2022/10/19 04:44:59;;;;;;;10.63;9.53;;;15.10;99.90;;;;;;5033359;28;20168;-57
2022/10/19 04:47:24;;;;;;;11.00;9.90;;;15.00;99.90;;;;;;5032142;28;20318;-59
2022/10/19 04:49:50;;;;;;;10.20;9.30;;;15.00;99.90;;;;;;5033515;28;20171;-56
2022/10/19 04:52:15;;;;;;;9.73;8.60;;;14.90;99.90;;;;;;5033383;28;20172;-58
2022/10/19 04:54:41;;;;;;;11.60;9.23;;;15.00;99.90;;;;;;5032625;28;20172;-59
2022/10/19 04:57:06;;;;;;;9.50;8.60;;;15.00;99.90;;;;;;5034215;28;20218;-56
2022/10/19 04:59:32;;;;;;;9.27;8.50;;;15.00;99.90;;;;;;5031949;28;20218;-59
2022/10/19 05:01:57;;;;;;;9.23;8.33;;;14.90;99.90;;;;;;5033222;28;20176;-58
2022/10/19 05:04:23;;;;;;;9.20;8.40;;;14.80;99.90;;;;;;5032978;28;20172;-58
2022/10/19 05:06:49;;;;;;;8.37;7.57;;;;;;;;;;5031933;28;20192;-57
2022/10/19 05:09:16;;;;;;;9.40;8.43;;;14.90;99.90;;;;;;5032948;28;20172;-59
2022/10/19 05:11:41;;;;;;;9.23;8.43;;;15.00;99.90;;;;;;5033113;28;20180;-56
2022/10/19 05:14:07;;;;;;;8.77;8.03;;;14.90;99.90;;;;;;5032522;28;20180;-58
2022/10/19 05:16:33;;;;;;;8.80;8.10;;;15.00;99.90;;;;;;5032921;28;20200;-57
2022/10/19 05:18:58;;;;;;;9.70;8.90;;;15.00;99.90;;;;;;5032707;28;20192;-59
2022/10/19 05:21:26;;;;;;;9.77;8.97;;;15.10;99.90;;;;;;5033342;28;20214;-58
2022/10/19 05:23:53;;;;;;;8.73;8.03;;;15.10;99.90;;;;;;5033050;28;20282;-60
2022/10/19 05:26:22;;;;;;;9.20;8.47;;;15.10;99.90;;;;;;5033297;28;20271;-60
2022/10/19 05:28:49;;;;;;;9.87;8.97;;;15.10;99.90;;;;;;5032045;28;20233;-58
2022/10/19 05:31:18;;;;;;;8.80;8.10;;;15.10;99.90;;;;;;5020607;28;20626;-58
2022/10/19 05:33:44;;;;;;;9.00;8.30;;;15.10;99.90;;;;;;5012627;28;20183;-58
2022/10/19 05:36:15;;;;;;;8.33;7.53;;;15.10;99.90;;;;;;5031731;28;20249;-58
2022/10/19 05:38:42;;;;;;;8.80;8.10;;;15.10;99.90;;;;;;5032436;28;20214;-54
2022/10/19 05:41:08;;;;;;;8.30;7.60;;;15.40;99.90;;;;;;5032298;28;20175;-57
2022/10/19 05:43:34;;;;;;;8.37;7.57;;;;;;;;;;5032444;28;20176;-58
2022/10/19 05:46:05;;;;;;;8.60;7.90;;;15.00;99.90;;;;;;5032147;28;20234;-59
2022/10/19 05:48:32;;;;;;;9.13;8.43;;;15.00;99.90;;;;;;5031781;28;20242;-58
2022/10/19 05:51:00;;;;;;;8.20;7.60;;;15.00;99.90;;;;;;5031214;28;20182;-57
2022/10/19 05:53:26;;;;;;;8.10;7.50;;;15.00;99.90;;;;;;5031229;28;20208;-59
2022/10/19 05:55:52;;;;;;;9.00;8.20;;;15.00;99.90;;;;;;5031965;28;20207;-59
2022/10/19 05:58:17;;;;;;;9.47;8.47;;;15.00;99.90;;;;;;5031903;28;20546;-58
2022/10/19 06:00:43;;;;;;;8.40;7.60;;;15.00;99.90;;;;;;5031722;28;20188;-58
2022/10/19 06:03:08;;;;;;;8.60;7.80;;;15.00;99.90;;;;;;5031187;28;20199;-59
2022/10/19 06:05:37;;;;;;;9.10;8.23;;;15.10;99.90;;;;;;5033606;28;20192;-60
2022/10/19 06:08:02;;;;;;;8.57;7.87;;;15.10;99.90;;;;;;5029401;28;20188;-59
2022/10/19 06:10:28;;;;;;;8.10;7.40;;;15.10;99.90;;;;;;5031257;28;20206;-59
2022/10/19 06:12:53;;;;;;;8.60;7.80;;;15.10;99.90;;;;;;5030301;28;20272;-59
2022/10/19 06:15:19;;;;;;;8.30;7.60;;;15.10;99.90;;;;;;5029677;28;20187;-58
2022/10/19 06:17:44;;;;;;;8.53;7.60;;;15.10;99.90;;;;;;5012873;28;20188;-57
2022/10/19 06:20:10;;;;;;;7.10;6.50;;;15.00;99.90;;;;;;5031081;28;20278;-59
2022/10/19 06:22:36;;;;;;;7.50;6.80;;;15.00;99.90;;;;;;5031567;28;20176;-58
2022/10/19 06:25:01;;;;;;;7.53;6.93;;;15.00;99.90;;;;;;5031066;28;20179;-57
2022/10/19 06:27:28;;;;;;;7.90;7.20;;;15.10;99.90;;;;;;5030867;28;20233;-56
2022/10/19 06:29:53;;;;;;;7.67;6.93;;;15.10;99.90;;;;;;5030063;28;20186;-59
2022/10/19 06:32:19;;;;;;;9.07;7.43;;;15.10;99.90;;;;;;5030664;28;20626;-58
2022/10/19 06:34:44;;;;;;;7.77;7.17;;;15.20;99.90;;;;;;5030921;28;20377;-57
2022/10/19 06:37:10;;;;;;;7.90;7.20;;;15.10;99.90;;;;;;5031612;28;20192;-57
2022/10/19 06:39:36;;;;;;;7.90;7.30;;;15.00;99.90;;;;;;5031333;28;20261;-59
2022/10/19 06:42:01;;;;;;;9.73;8.00;;;15.00;99.90;;;;;;5031614;28;20242;-59
2022/10/19 06:44:27;;;;;;;8.63;7.93;;;15.00;99.90;;;;;;5031348;28;20172;-58
2022/10/19 06:46:52;;;;;;;8.43;7.70;;;15.10;99.90;;;;;;5031295;28;20203;-60
2022/10/19 06:49:18;;;;;;;8.30;7.50;;;15.10;99.90;;;;;;5031414;28;20203;-58
2022/10/19 06:51:43;;;;;;;8.50;7.80;;;15.20;99.90;;;;;;5031192;28;20172;-56
2022/10/19 06:54:09;;;;;;;9.57;8.67;;;15.30;99.90;;;;;;5030446;28;20514;-62
2022/10/19 06:56:35;;;;;;;9.23;8.30;;;15.30;99.90;;;;;;5031003;28;20215;-61
2022/10/19 06:59:01;;;;;;;8.83;8.10;;;15.50;99.90;;;;;;5030078;28;20386;-58
2022/10/19 07:01:26;;;;;;;9.40;8.60;;;15.50;99.90;;;;;;5031448;28;20672;-58
2022/10/19 07:03:54;;;;;;;10.50;9.60;;;15.40;99.90;;;;;;5030632;28;20176;-59
2022/10/19 07:06:20;;;;;;;10.47;9.57;;;15.40;99.90;;;;;;5031305;28;20237;-60
2022/10/19 07:08:46;;;;;;;10.50;9.50;;;15.40;99.90;;;;;;5031208;28;20176;-56
2022/10/19 07:11:16;;;;;;;9.60;8.70;;;15.30;99.90;;;;;;5031275;28;20174;-59
2022/10/19 07:13:41;;;;;;;9.50;8.70;;;15.40;99.90;;;;;;5029700;28;20233;-59
2022/10/19 07:16:13;;;;;;;9.43;8.57;;;15.40;99.90;;;;;;5031172;28;20278;-57
2022/10/19 07:18:40;;;;;;;9.00;8.10;;;15.30;99.90;;;;;;5033166;28;20262;-57
2022/10/19 07:21:11;;;;;;;9.73;8.93;;;15.40;99.90;;;;;;5035183;28;20184;-59
2022/10/19 07:23:39;;;;;;;9.40;8.60;;;15.40;99.90;;;;;;5034798;28;20168;-59
2022/10/19 07:26:08;;;;;;;9.10;8.30;;;15.50;99.90;;;;;;5035098;28;20195;-59
2022/10/19 07:28:34;;;;;;;8.70;8.00;;;15.50;99.90;;;;;;5034990;28;20164;-58
2022/10/19 07:31:05;;;;;;;9.10;8.30;;;15.70;99.90;;;;;;5034776;28;20173;-61
2022/10/19 07:33:30;;;;;;;8.67;7.97;;;15.70;99.90;;;;;;5034665;28;20172;-58
2022/10/19 07:36:01;;;;;;;9.40;8.57;;;15.70;99.90;;;;;;5034672;28;20266;-58
2022/10/19 07:38:28;;;;;;;8.50;7.80;;;15.80;99.90;;;;;;5034679;28;20165;-58
2022/10/19 07:41:04;;;;;;;9.33;8.43;;;15.80;99.90;;;;;;5034616;28;20180;-59
2022/10/19 07:43:30;;;;;;;9.87;8.67;;;15.80;99.90;;;;;;5034255;28;20187;-59
2022/10/19 07:46:05;;;;;;;7.83;7.13;;;15.80;99.90;;;;;;5034498;28;20192;-59
2022/10/19 07:48:30;;;;;;;7.90;7.20;;;15.90;99.90;;;;;;5034527;28;20164;-60
2022/10/19 07:50:56;;;;;;;8.27;7.37;;;15.90;99.90;;;;;;5033989;28;20245;-59
2022/10/19 07:53:22;;;;;;;9.10;8.27;;;16.00;99.90;;;;;;5034288;28;20203;-59
2022/10/19 07:55:47;;;;;;;7.43;6.83;;;16.10;99.90;;;;;;5034262;28;20196;-59
2022/10/19 07:58:13;;;;;;;8.07;7.37;;;16.10;99.90;;;;;;5034489;28;20173;-58
2022/10/19 08:00:39;;;;;;;7.03;6.43;;;16.00;99.90;;;;;;5033779;28;20247;-59
2022/10/19 08:03:04;;;;;;;7.23;6.63;;;16.10;99.90;;;;;;5034156;28;20237;-57
2022/10/19 08:05:33;;;;;;;7.27;6.60;;;16.30;99.90;;;;;;5034084;28;20271;-59
2022/10/19 08:07:59;;;;;;;6.07;5.57;;;16.30;99.90;;;;;;5034378;28;20264;-59
2022/10/19 08:10:25;;;;;;;7.30;6.70;;;16.30;99.90;;;;;;5034222;28;20218;-58
2022/10/19 08:12:50;;;;;;;6.13;5.57;;;16.40;99.90;;;;;;5034437;28;20271;-61
2022/10/19 08:15:16;;;;;;;6.63;6.03;;;16.50;99.90;;;;;;5034682;28;20175;-60
2022/10/19 08:17:41;;;;;;;6.60;6.00;;;16.50;99.90;;;;;;5034423;28;20182;-59
2022/10/19 08:20:07;;;;;;;6.07;5.53;;;16.70;99.90;;;;;;5034427;28;20196;-56
2022/10/19 08:22:33;;;;;;;5.97;5.47;;;16.80;99.90;;;;;;5034039;28;20169;-60
2022/10/19 08:24:59;;;;;;;6.47;5.97;;;16.80;99.90;;;;;;5033685;28;20167;-58
2022/10/19 08:27:24;;;;;;;6.10;5.60;;;16.90;99.90;;;;;;5033812;28;20200;-59
2022/10/19 08:29:50;;;;;;;6.60;5.63;;;16.90;99.90;;;;;;5033050;28;20169;-58
2022/10/19 08:32:17;;;;;;;6.57;6.03;;;16.90;99.90;;;;;;5033889;28;20171;-59
2022/10/19 08:34:42;;;;;;;5.90;5.30;;;16.80;99.90;;;;;;5033604;28;20218;-58
2022/10/19 08:37:08;;;;;;;7.13;5.83;;;16.70;99.90;;;;;;5033657;28;20200;-58
2022/10/19 08:39:33;;;;;;;7.57;5.57;;;16.60;99.90;;;;;;5033532;28;20202;-58
2022/10/19 08:42:07;;;;;;;6.50;5.83;;;16.60;99.90;;;;;;5033645;28;20172;-59
2022/10/19 08:45:07;;;;;;;6.67;6.13;;;16.60;99.90;;;;;;5033425;28;20167;-59
2022/10/19 08:47:58;;;;;;;6.70;6.10;;;16.60;99.90;;;;;;5033535;28;20195;-59
2022/10/19 08:50:31;;;;;;;6.93;6.23;;;16.60;99.90;;;;;;5033547;28;20550;-58
2022/10/19 08:53:03;;;;;;;6.87;6.27;;;16.50;99.90;;;;;;5033584;28;20203;-57
2022/10/19 08:55:59;;;;;;;7.87;5.93;;;16.40;99.90;;;;;;5031872;28;20208;-58
2022/10/19 08:58:39;;;;;;;6.30;5.70;;;16.50;99.90;;;;;;5033158;28;20176;-58
2022/10/19 09:01:22;;;;;;;6.53;5.93;;;16.50;99.90;;;;;;5033332;28;20163;-59
2022/10/19 09:03:58;;;;;;;5.30;4.90;;;16.50;99.90;;;;;;5032939;28;20199;-59
2022/10/19 09:07:02;;;;;;;6.20;5.60;;;16.60;99.90;;;;;;5033201;28;20270;-60
2022/10/19 09:09:30;;;;;;;5.53;5.10;;;16.70;99.90;;;;;;4991393;28;20180;-58
2022/10/19 09:12:04;;;;;;;5.70;5.20;;;17.10;99.90;;;;;;4991465;28;20231;-58
2022/10/19 09:14:37;;;;;;;5.67;5.07;;;16.90;99.90;;;;;;4991166;28;20257;-57
2022/10/19 09:17:10;;;;;;;5.03;4.40;;;17.10;99.90;;;;;;4991125;28;20205;-57
2022/10/19 09:19:36;;;;;;;4.50;4.10;;;17.40;99.90;;;;;;4991107;28;20689;-59
2022/10/19 09:22:26;;;;;;;5.20;4.80;;;17.70;99.90;;;;;;4991286;28;20165;-58
2022/10/19 09:24:57;;;;;;;6.00;5.00;;;18.10;99.90;;;;;;4990934;28;20643;-58
2022/10/19 09:27:27;;;;;;;6.00;4.87;;;18.40;99.90;;;;;;4991109;28;20204;-59
2022/10/19 09:29:57;;;;;;;5.70;4.50;;;18.60;99.90;;;;;;4990963;28;20328;-57
2022/10/19 09:32:31;;;;;;;5.50;4.87;;;19.10;99.90;;;;;;4991092;28;20170;-60
2022/10/19 09:35:01;;;;;;;4.78;4.38;;;19.60;99.90;;;;;;4990831;28;20184;-58
2022/10/19 09:37:27;;;;;;;4.63;4.20;;;19.50;99.90;;;;;;4991028;28;20634;-59
2022/10/19 09:39:54;;;;;;;3.95;3.65;;;19.40;99.90;;;;;;4990698;28;20210;-59
2022/10/19 09:42:31;;;;;;;5.68;3.92;;;19.80;99.90;;;;;;4992796;28;20251;-55
2022/10/19 09:44:59;;;;;;;4.80;4.18;;;20.30;99.90;;;;;;5032252;28;20168;-58
2022/10/19 09:47:35;;;;;;;4.53;4.13;;;20.10;99.90;;;;;;5032468;28;20552;-56
2022/10/19 09:50:15;;;;;;;4.97;4.53;;;19.70;99.90;;;;;;5032314;28;20210;-58
2022/10/19 09:52:43;;;;;;;4.70;4.40;;;19.50;99.90;;;;;;5032118;28;20282;-56
2022/10/19 09:55:39;;;;;;;4.57;3.90;;;19.50;99.90;;;;;;5031664;28;20258;-56
2022/10/19 09:58:18;;;;;;;6.28;4.80;;;19.40;99.90;;;;;;5032265;28;20230;-58
2022/10/19 10:00:43;;;;;;;7.93;5.00;;;18.90;99.90;;;;;;5031992;28;20615;-59
2022/10/19 10:03:27;;;;;;;4.95;4.50;;;18.60;99.90;;;;;;5030536;28;20178;-58
2022/10/19 10:05:56;;;;;;;2.90;2.70;;;19.70;99.90;;;;;;5031823;28;20291;-60
2022/10/19 10:08:24;;;;;;;2.55;2.42;;;22.90;99.90;;;;;;5032027;28;20176;-59
2022/10/19 10:11:06;;;;;;;2.30;2.10;;;26.10;99.90;;;;;;5031874;28;20175;-60
2022/10/19 10:13:36;;;;;;;3.10;2.20;;;30.10;99.90;;;;;;5031502;28;20180;-61
2022/10/19 10:16:05;;;;;;;3.03;2.83;;;32.70;99.40;;;;;;5031926;28;20286;-59
2022/10/19 10:18:34;;;;;;;3.95;3.20;;;34.60;94.00;;;;;;5031669;28;20258;-59
2022/10/19 10:21:10;;;;;;;2.97;2.67;;;33.90;93.30;;;;;;5031654;28;20198;-60
2022/10/19 10:23:37;;;;;;;3.30;2.70;;;33.00;93.60;;;;;;5031384;28;20166;-59
2022/10/19 10:26:05;;;;;;;2.13;2.03;;;33.00;93.90;;;;;;5031602;28;20206;-60
2022/10/19 10:28:31;;;;;;;2.47;2.28;;;33.80;93.10;;;;;;5031644;28;20568;-56
2022/10/19 10:31:06;;;;;;;2.72;2.60;;;35.40;90.20;;;;;;5031525;28;20217;-59
2022/10/19 10:33:35;;;;;;;3.88;2.55;;;35.20;87.60;;;;;;5031177;28;20171;-60
2022/10/19 10:36:04;;;;;;;2.95;2.75;;;34.40;87.60;;;;;;5031598;28;20237;-59
2022/10/19 10:39:02;;;;;;;2.88;2.67;;;34.10;87.50;;;;;;5031341;28;20175;-59
2022/10/19 10:41:29;;;;;;;4.53;2.47;;;34.40;88.60;;;;;;5029654;28;20190;-58
2022/10/19 10:44:02;;;;;;;2.72;2.50;;;34.50;86.50;;;;;;5031195;28;20190;-59
2022/10/19 10:46:39;;;;;;;2.53;2.40;;;35.30;84.30;;;;;;5031422;28;20202;-59
2022/10/19 10:49:07;;;;;;;3.72;3.30;;;34.80;86.50;;;;;;5031333;28;20658;-58
2022/10/19 10:51:46;;;;;;;3.55;3.25;;;34.40;85.00;;;;;;5031476;28;20171;-60
2022/10/19 10:54:23;;;;;;;2.75;2.65;;;33.40;89.20;;;;;;5030691;28;20176;-60
2022/10/19 10:57:08;;;;;;;3.78;3.30;;;33.50;87.30;;;;;;5032524;28;20244;-60
2022/10/19 11:00:06;;;;;;;3.42;3.22;;;34.00;85.60;;;;;;5031159;28;20695;-59
2022/10/19 11:02:45;;;;;;;2.65;2.35;;;32.90;89.10;;;;;;5031431;28;20767;-59
2022/10/19 11:05:26;;;;;;;3.20;3.00;;;32.50;89.70;;;;;;5030949;28;20528;-59
2022/10/19 11:08:12;;;;;;;3.25;2.95;;;33.30;87.70;;;;;;5031291;28;20250;-58
2022/10/19 11:10:58;;;;;;;3.10;2.90;;;33.40;86.50;;;;;;5031113;28;20171;-60
2022/10/19 11:13:45;;;;;;;3.05;2.85;;;32.40;87.70;;;;;;5030969;28;20171;-59
2022/10/19 11:16:16;;;;;;;2.92;2.72;;;32.10;89.60;;;;;;5031006;28;20230;-59
2022/10/19 11:18:50;;;;;;;3.35;3.15;;;32.30;88.10;;;;;;5031318;28;20733;-60
2022/10/19 11:21:45;;;;;;;2.97;2.70;;;31.50;90.00;;;;;;5031286;28;20181;-59
2022/10/19 11:24:20;;;;;;;3.22;2.75;;;31.20;90.20;;;;;;4989170;28;20188;-60
2022/10/19 11:27:15;;;;;;;3.60;3.30;;;31.60;90.10;;;;;;4989414;28;20197;-59
2022/10/19 11:30:00;;;;;;;3.83;3.10;;;31.80;87.70;;;;;;4989423;28;20188;-57
2022/10/19 11:32:33;;;;;;;3.08;2.90;;;31.80;88.30;;;;;;4989370;28;20215;-59
2022/10/19 11:35:04;;;;;;;2.75;2.55;;;32.00;88.40;;;;;;4989305;28;20625;-59
2022/10/19 11:37:45;;;;;;;3.15;2.80;;;32.00;89.40;;;;;;4989404;28;20666;-55
2022/10/19 11:40:22;;;;;;;2.58;2.38;;;32.30;87.10;;;;;;4989405;28;20247;-58
2022/10/19 11:43:05;;;;;;;4.50;3.10;;;32.50;87.90;;;;;;4991160;28;20252;-60
2022/10/19 11:45:31;;;;;;;3.33;2.72;;;32.50;86.60;;;;;;4989281;28;20200;-59
2022/10/19 11:48:24;;;;;;;2.70;2.60;;;32.80;85.30;;;;;;4989241;28;20185;-59
2022/10/19 11:50:55;;;;;;;2.85;2.67;;;32.50;85.60;;;;;;4989240;28;20188;-59
2022/10/19 11:53:42;;;;;;;2.70;2.50;;;32.30;86.90;;;;;;4988760;28;20173;-59
2022/10/19 11:56:27;;;;;;;4.85;2.90;;;32.70;86.70;;;;;;4989143;28;20212;-59
2022/10/19 11:59:04;;;;;;;4.30;2.85;;;32.40;85.70;;;;;;4989028;28;20208;-60
2022/10/19 12:01:42;;;;;;;2.63;2.53;;;32.00;86.00;;;;;;5019597;28;20195;-59
2022/10/19 12:04:23;;;;;;;3.00;2.80;;;31.90;87.70;;;;;;5030412;28;20260;-59
2022/10/19 12:07:00;;;;;;;2.90;2.70;;;31.30;88.50;;;;;;5034285;28;20561;-60
2022/10/19 12:09:44;;;;;;;4.20;3.00;;;30.80;89.90;;;;;;5034118;28;20700;-59
2022/10/19 12:12:31;;;;;;;2.95;2.75;;;30.70;90.20;;;;;;5034248;28;20179;-61
2022/10/19 12:15:11;;;;;;;4.50;2.72;;;30.60;88.20;;;;;;5033647;28;20171;-61
2022/10/19 12:17:40;;;;;;;3.22;3.03;;;30.50;89.50;;;;;;5034154;28;20258;-58
2022/10/19 12:20:17;;;;;;;2.55;2.35;;;30.40;90.60;;;;;;5033844;28;20802;-61
2022/10/19 12:22:44;;;;;;;2.47;2.30;;;30.70;90.50;;;;;;5034037;28;20159;-58
2022/10/19 12:25:13;;;;;;;3.10;2.90;;;30.70;89.90;;;;;;5033586;28;20164;-60
2022/10/19 12:27:40;;;;;;;2.47;2.30;;;30.60;90.10;;;;;;5034123;28;20174;-59
2022/10/19 12:30:12;;;;;;;3.65;2.63;;;30.40;88.10;;;;;;5033874;28;20186;-59
2022/10/19 12:33:06;;;;;;;3.13;2.42;;;30.40;88.80;;;;;;5033921;28;20234;-58
2022/10/19 12:35:51;;;;;;;2.88;2.67;;;30.40;90.20;;;;;;5032052;28;20229;-59
2022/10/19 12:38:41;;;;;;;3.15;2.38;;;30.00;90.80;;;;;;5033801;28;20171;-59
2022/10/19 12:41:23;;;;;;;3.72;2.97;;;29.90;90.70;;;;;;5033590;28;20210;-58
2022/10/19 12:44:27;;;;;;;3.45;2.70;;;29.90;90.80;;;;;;5033525;28;20180;-59
2022/10/19 12:46:59;;;;;;;3.83;2.75;;;29.70;91.50;;;;;;4991751;28;20227;-59
2022/10/19 12:49:25;;;;;;;3.38;2.72;;;29.80;91.70;;;;;;4991964;28;20185;-59
2022/10/19 12:51:52;;;;;;;3.80;2.40;;;29.70;90.90;;;;;;4991765;28;20582;-60
2022/10/19 12:54:29;;;;;;;2.60;2.40;;;29.10;91.20;;;;;;4991494;28;20251;-58
2022/10/19 12:56:57;;;;;;;2.38;2.17;;;29.10;92.60;;;;;;4991485;28;20207;-59
2022/10/19 12:59:32;;;;;;;3.05;2.70;;;28.90;91.40;;;;;;4991639;28;20255;-58
2022/10/19 13:01:59;;;;;;;3.20;2.17;;;29.20;91.50;;;;;;4991635;28;20180;-59